createdAt,value
2023-01-15T00:04:37.789Z,993.1
2023-01-15T00:09:45.784Z,993.2
2023-01-15T00:14:52.165Z,993.2
2023-01-15T00:20:00.150Z,993.1
2023-01-15T00:25:06.525Z,993.2
2023-01-15T00:30:13.243Z,993.1
2023-01-15T00:35:19.776Z,993.1
2023-01-15T00:40:26.188Z,993.1
2023-01-15T00:45:32.642Z,993.1
2023-01-15T00:50:39.028Z,993.3
2023-01-15T01:00:53.632Z,993.1
2023-01-15T01:06:44.671Z,993.2
2023-01-15T01:12:19.156Z,993.1
2023-01-15T01:16:36.462Z,993.2
2023-01-15T01:21:23.045Z,993.2
2023-01-15T01:26:54.779Z,993.3
2023-01-15T01:31:55.998Z,993.4
2023-01-15T01:36:42.317Z,993.5
2023-01-15T01:41:48.710Z,993.5
2023-01-15T01:46:55.099Z,993.4
2023-01-15T01:52:01.462Z,993.4
2023-01-15T01:58:53.403Z,993.4
2023-01-15T02:04:44.976Z,993.4
2023-01-15T02:09:07.233Z,993.4
2023-01-15T02:14:13.749Z,993.4
2023-01-15T02:25:53.364Z,993.5
2023-01-15T02:31:00.787Z,993.5
2023-01-15T02:35:57.138Z,993.5
2023-01-15T02:41:13.549Z,993.3
2023-01-15T02:47:32.061Z,993.4
2023-01-15T02:51:26.329Z,993.4
2023-01-15T02:56:34.029Z,993.3
2023-01-15T03:01:40.559Z,993.4
2023-01-15T03:06:46.803Z,993.3
2023-01-15T03:12:17.214Z,993.3
2023-01-15T03:16:59.731Z,993.3
2023-01-15T03:22:06.126Z,993.3
2023-01-15T03:27:36.205Z,993.2
2023-01-15T03:32:22.561Z,993.2
2023-01-15T03:37:28.925Z,993.0
2023-01-15T03:42:59.357Z,993.1
2023-01-15T03:47:41.819Z,993.2
2023-01-15T03:52:48.293Z,993.1
2023-01-15T03:57:54.962Z,993.1
2023-01-15T04:03:03.641Z,993.1
2023-01-15T04:08:09.924Z,993.1
2023-01-15T04:13:16.375Z,993.1
2023-01-15T04:18:22.762Z,993.1
2023-01-15T04:23:19.111Z,993.2
2023-01-15T04:28:39.524Z,993.1
2023-01-15T04:33:31.862Z,993.0
2023-01-15T04:38:52.301Z,993.1
2023-01-15T04:43:54.438Z,993.2
2023-01-15T04:49:21.849Z,993.2
2023-01-15T04:53:58.182Z,993.2
2023-01-15T04:59:16.163Z,993.2
2023-01-15T05:04:22.609Z,992.9
2023-01-15T05:09:28.968Z,992.9
2023-01-15T05:14:35.337Z,993.1
2023-01-15T05:20:50.886Z,993.1
2023-01-15T05:25:58.837Z,993.2
2023-01-15T05:31:05.401Z,993.2
2023-01-15T05:36:35.882Z,993.2
2023-01-15T05:41:18.316Z,993.1
2023-01-15T05:46:24.729Z,993.2
2023-01-15T05:51:31.632Z,993.2
2023-01-15T05:56:38.012Z,993.2
2023-01-15T06:01:44.402Z,993.0
2023-01-15T06:06:50.804Z,993.3
2023-01-15T06:12:21.203Z,993.2
2023-01-15T06:17:06.520Z,993.2
2023-01-15T06:22:34.050Z,993.1
2023-01-15T06:28:29.335Z,993.0
2023-01-15T06:33:35.729Z,992.9
2023-01-15T06:37:30.243Z,993.0
2023-01-15T06:42:57.212Z,992.9
2023-01-15T06:47:43.567Z,993.0
2023-01-15T06:54:26.410Z,993.2
2023-01-15T06:59:03.815Z,993.3
2023-01-15T07:04:20.227Z,993.2
2023-01-15T07:09:26.600Z,993.2
2023-01-15T07:14:32.979Z,993.2
2023-01-15T07:19:39.521Z,993.2
2023-01-15T07:24:45.911Z,993.3
2023-01-15T07:29:42.258Z,993.1
2023-01-15T07:34:58.652Z,993.1
2023-01-15T07:40:05.035Z,993.1
2023-01-15T07:45:11.619Z,993.1
2023-01-15T07:50:18.000Z,993.1
2023-01-15T07:55:24.418Z,993.0
2023-01-15T08:01:05.955Z,993.1
2023-01-15T08:06:13.242Z,993.1
2023-01-15T08:11:19.633Z,993.1
2023-01-15T08:16:26.167Z,993.4
2023-01-15T08:21:32.411Z,993.3
2023-01-15T08:26:38.810Z,993.3
2023-01-15T08:31:45.269Z,993.2
2023-01-15T08:36:41.559Z,993.2
2023-01-15T08:41:57.948Z,993.1
2023-01-15T08:47:24.365Z,993.1
2023-01-15T08:52:10.719Z,993.4
2023-01-15T08:57:17.113Z,993.2
2023-01-15T09:02:23.497Z,993.2
2023-01-15T09:07:33.512Z,993.3
2023-01-15T09:12:39.956Z,993.2
2023-01-15T09:17:46.309Z,993.3
2023-01-15T09:22:52.673Z,993.2
2023-01-15T09:27:59.055Z,993.4
2023-01-15T09:33:05.445Z,993.2
2023-01-15T09:38:31.833Z,993.3
2023-01-15T09:43:18.164Z,993.3
2023-01-15T09:48:48.747Z,993.2
2023-01-15T09:53:31.131Z,993.3
2023-01-15T09:58:37.539Z,993.2
2023-01-15T10:03:43.919Z,993.3
2023-01-15T10:08:50.295Z,993.3
2023-01-15T10:13:56.689Z,993.4
2023-01-15T10:19:03.068Z,993.3
2023-01-15T10:24:09.600Z,993.2
2023-01-15T10:29:15.980Z,993.4
2023-01-15T10:34:22.361Z,993.2
2023-01-15T10:39:28.751Z,993.1
2023-01-15T10:44:35.118Z,993.3
2023-01-15T10:49:40.505Z,993.6
2023-01-15T10:55:11.970Z,993.2
2023-01-15T10:59:54.388Z,993.1
2023-01-15T11:05:20.826Z,993.2
2023-01-15T11:15:53.054Z,993.1
2023-01-15T11:21:24.380Z,993.1
2023-01-15T11:26:06.730Z,993.3
2023-01-15T11:31:13.151Z,993.2
2023-01-15T11:36:09.644Z,992.9
2023-01-15T11:41:26.152Z,993.1
2023-01-15T11:46:32.701Z,993.1
2023-01-15T11:51:39.130Z,993.2
2023-01-15T11:56:45.537Z,992.9
2023-01-15T12:01:51.892Z,992.7
2023-01-15T12:06:58.387Z,992.6
2023-01-15T12:11:54.729Z,992.8
2023-01-15T12:17:12.698Z,992.8
2023-01-15T12:22:19.149Z,993.0
2023-01-15T12:32:30.917Z,993.0
2023-01-15T12:37:38.299Z,993.0
2023-01-15T12:42:34.806Z,992.7
2023-01-15T12:47:51.414Z,993.0
2023-01-15T12:52:58.318Z,992.7
2023-01-15T12:58:08.714Z,992.8
2023-01-15T13:03:11.102Z,993.0
2023-01-15T13:08:17.470Z,992.9
2023-01-15T13:13:23.847Z,993.1
2023-01-15T13:18:30.235Z,993.0
2023-01-15T13:23:36.632Z,992.8
2023-01-15T13:29:07.046Z,992.9
2023-01-15T13:33:39.493Z,992.8
2023-01-15T13:38:55.898Z,992.9
2023-01-15T13:44:02.285Z,993.1
2023-01-15T13:48:58.676Z,993.1
2023-01-15T13:54:15.074Z,993.2
2023-01-15T13:59:25.016Z,993.3
2023-01-15T14:04:31.395Z,993.3
2023-01-15T14:14:48.123Z,993.2
2023-01-15T14:21:08.234Z,993.2
2023-01-15T14:25:02.437Z,993.6
2023-01-15T14:30:12.411Z,993.6
2023-01-15T14:35:08.767Z,993.9
2023-01-15T14:40:25.167Z,993.7
2023-01-15T14:45:31.598Z,993.6
2023-01-15T14:50:46.609Z,993.6
2023-01-15T14:55:48.991Z,993.8
2023-01-15T15:00:56.089Z,994.0
2023-01-15T15:11:08.698Z,994.0
2023-01-15T15:17:15.378Z,994.2
2023-01-15T15:21:21.627Z,994.2
2023-01-15T15:26:28.018Z,994.1
2023-01-15T15:32:13.467Z,994.4
2023-01-15T15:37:54.980Z,994.3
2023-01-15T15:43:02.370Z,994.3
2023-01-15T15:48:08.746Z,994.4
2023-01-15T15:53:15.118Z,994.4
2023-01-15T15:58:21.627Z,994.4
2023-01-15T16:03:28.037Z,994.4
2023-01-15T16:08:34.419Z,994.5
2023-01-15T16:13:30.755Z,994.5
2023-01-15T16:18:46.165Z,994.6
2023-01-15T16:23:53.534Z,994.7
2023-01-15T16:28:59.892Z,994.8
2023-01-15T16:34:06.298Z,994.7
2023-01-15T16:39:12.662Z,994.7
2023-01-15T16:44:19.029Z,994.8
2023-01-15T16:49:25.404Z,995.0
2023-01-15T16:54:31.887Z,995.1
2023-01-15T16:59:42.195Z,995.0
2023-01-15T17:04:44.580Z,995.0
2023-01-15T17:10:14.980Z,995.0
2023-01-15T17:14:57.303Z,995.0
2023-01-15T17:20:03.793Z,995.0
2023-01-15T17:25:00.360Z,995.2
2023-01-15T17:30:06.656Z,995.1
2023-01-15T17:35:13.027Z,995.1
2023-01-15T17:40:53.467Z,995.0
2023-01-15T17:45:35.798Z,995.0
2023-01-15T17:50:42.169Z,995.1
2023-01-15T17:55:48.723Z,995.1
2023-01-15T18:00:55.183Z,995.0
2023-01-15T18:06:01.584Z,995.0
2023-01-15T18:10:57.985Z,995.3
2023-01-15T18:16:14.505Z,994.9
2023-01-15T18:22:36.509Z,995.0
2023-01-15T18:26:30.755Z,995.3
2023-01-15T18:32:01.182Z,995.8
2023-01-15T18:36:47.543Z,995.8
2023-01-15T18:41:49.970Z,995.7
2023-01-15T18:46:56.334Z,995.7
2023-01-15T18:52:02.713Z,995.8
2023-01-15T18:57:09.104Z,995.7
2023-01-15T19:02:05.619Z,995.6
2023-01-15T19:09:43.268Z,995.6
2023-01-15T19:13:38.543Z,995.7
2023-01-15T19:19:04.947Z,995.7
2023-01-15T19:23:41.269Z,995.7
2023-01-15T19:28:57.678Z,995.6
2023-01-15T19:34:31.562Z,995.6
2023-01-15T19:39:10.475Z,995.6
2023-01-15T19:44:16.860Z,995.6
2023-01-15T19:49:47.288Z,995.5
2023-01-15T19:54:29.737Z,995.5
2023-01-15T20:00:10.214Z,995.2
2023-01-15T20:05:17.578Z,995.4
2023-01-15T20:10:24.014Z,995.4
2023-01-15T20:15:30.493Z,995.3
2023-01-15T20:20:36.867Z,995.2
2023-01-15T20:25:43.249Z,995.2
2023-01-15T20:30:49.627Z,995.2
2023-01-15T20:35:56.004Z,995.1
2023-01-15T20:41:02.452Z,995.3
2023-01-15T20:46:08.979Z,995.3
2023-01-15T20:51:15.295Z,995.2
2023-01-15T20:56:21.694Z,995.2
2023-01-15T21:03:01.288Z,995.2
2023-01-15T21:07:44.627Z,995.1
2023-01-15T21:12:51.026Z,995.0
2023-01-15T21:17:57.384Z,994.7
2023-01-15T21:23:03.771Z,994.8
2023-01-15T21:28:10.167Z,994.9
2023-01-15T21:33:15.929Z,994.8
2023-01-15T21:38:13.323Z,994.6
2023-01-15T21:43:29.783Z,994.6
2023-01-15T21:49:34.293Z,994.5
2023-01-15T21:54:17.625Z,994.5
2023-01-15T21:59:24.016Z,994.5
2023-01-15T22:04:30.384Z,994.4
2023-01-15T22:09:56.801Z,994.4
2023-01-15T22:14:43.131Z,994.2
2023-01-15T22:20:58.683Z,994.1
2023-01-15T22:26:06.074Z,994.0
2023-01-15T22:31:12.512Z,993.9
2023-01-15T22:36:18.848Z,993.8
2023-01-15T22:41:25.236Z,993.8
2023-01-15T22:47:43.742Z,993.7
2023-01-15T22:51:38.004Z,993.7
2023-01-15T23:01:58.612Z,993.4
2023-01-15T23:06:59.927Z,993.3
2023-01-15T23:12:31.409Z,993.3
2023-01-15T23:17:47.864Z,993.2
2023-01-15T23:24:07.365Z,993.1
2023-01-15T23:28:01.662Z,993.1
2023-01-15T23:33:08.008Z,993.0
2023-01-15T23:38:14.345Z,993.0
2023-01-15T23:43:20.707Z,992.8
2023-01-15T23:48:27.139Z,992.8
2023-01-15T23:53:33.561Z,992.7
2023-01-15T23:59:01.578Z,992.6
